Relevés horaires Säntis (Suisse)


Relevés horaires à Säntis - Mardi 06 Déc. 2005
Heure UTC1 Température [°C] Vent [km/h] Hum. [%] Pres.4 [hPa] Visi. [Km] Nébu. [octa] Préc.5 [mm] Cond.
2m. Res. Ros. Dir.2 Vit. Moy. Raf.3
23:00 -11.4 -17.9 -12.3 ESE 13.0 25.9 44.4 93 700(0.9/3h) -- -- -- --
22:00 -11.0 -15.4 -11.7 ONO 7.4 25.9 44.4 95 700(0.9/3h) -- -- -- --
21:00 -11.3 -18.8 -12.4 SO 16.7 22.2 40.7 92 700(1.0/3h) 0 -- -- Légère neige intermittente
20:00 -11.8 -17.1 -12.8 O 9.3 22.2 40.7 92 700(0.9/3h) -- -- -- --
19:00 -11.4 -20.1 -12.6 O 22.2 22.2 37.0 91 700(1.2/3h) -- -- -- --
18:00 -11.1 -14.6 -11.5 S 5.6 27.8 44.4 97 700(1.3/3h) 0 -- 0.9/12h
Brouillard, ciel pas visible, pas de changement
17:00 -11.1 -15.5 -11.7 OSO 7.4 13.0 25.9 95 700(1.5/3h) -- -- -- --
16:00 -11.1 -14.6 -11.5 E 5.6 9.3 29.6 97 700(1.1/3h) -- -- -- --
15:00 -10.7 -15 -11.1 E 7.4 22.2 40.7 97 700(0.8/3h) 0 -- -- Légère neige intermittente
14:00 -10.7 -15.8 -11.2 O 9.3 22.2 40.7 96 700(-0.1/3h) -- -- -- --
13:00 -10.6 -18.3 -11.8 OSO 18.5 22.2 40.7 91 700(-0.2/3h) -- -- -- --
12:00 -11.0 -18.8 -12.1 O 18.5 27.8 50.0 92 700(-0.2/3h) 0 -- 0.3/6h
Brouillard, ciel pas visible, pas de changement
11:00 -10.8 -16 -11.5 ONO 9.3 13.0 29.6 95 700(0.4/3h) -- -- -- --
10:00 -10.7 -16.5 -11.4 O 11.1 20.4 33.3 95 700(0.7/3h) -- -- -- --
09:00 -10.8 -17.2 -11.5 OSO 13.0 27.8 44.4 95 700(0.4/3h) 0 -- -- Légère neige continue
08:00 -11.1 -18.5 -12.1 O 16.7 27.8 44.4 92 700(0.2/3h) -- -- -- --
07:00 -10.7 -18.8 -11.6 O 20.4 27.8 44.4 93 700(0.0/3h) -- -- -- --
06:00 -10.4 -18.4 -11.3 O 20.4 31.5 53.7 93 700(0.0/3h) 0 -- 2/12h
Légère neige intermittente
05:00 -10.1 -16.8 -10.7 ONO 14.8 14.8 37.0 95 700(-0.1/3h) -- -- -- --
04:00 -10.0 -14.2 -10.0 OSO 7.4 24.1 44.4 100 700(-0.4/3h) -- -- -- --
03:00 -10.1 -16.3 -10.3 SO 13.0 31.5 53.7 98 700(-0.4/3h) 0 -- -- Légère neige intermittente
02:00 -10.1 -18.1 -12.2 SE 20.4 22.2 50.0 85 700(-0.4/3h) -- -- -- --
01:00 -9.8 -18 -10.5 OSO 22.2 27.8 48.2 95 700(0.0/3h) -- -- -- --
00:00 -9.1 -16.4 -9.5 O 18.5 31.5 -- 97 700(-0.2/3h) -- -- -- --

1 Coordinated Universal Time. Actuellement il est 11:00 locale et 09:00 UTC.

2 Le vent souffle depuis la direction indiquée vers la direction oposée.

3 Les rafales max. sont disponible 40 min après l'heure du relevé.

4 Pour les stations d'altitude (plus de 600m) le géopotentiel du niveau le plus proche de la pression obligatoire est indiqué.

5 Les stations disposant d'un diffuseur peuvent indiquer "trace". Cela signifie que des précipitations ont touchés le sol mais que la quantité est inférieure à 0.1 mm.

Copyright

Les données affichées sur cette page sont la propriété exclusive de Météo Suisse.

Récapitulatif de la journée
Température [°C] Vent [km/h] Ensoleillement4 [h] Precipitations totale5 [mm] Pression [Hpa]
Min1 Max.2 Moy.3 Max. Min Max.
-10.7 -10.4 23.5 53.7 0 h 24 min 4.9 700.0 700.0

1 Température minimale relevée entre 18:00 UTC la veille et 18:00 UTC le jour donné.

2 Température maximale relevée entre 06:00 UTC le jour donné et 06:00 UTC le lendemain.

3 Vent moyen de la journée basé sur les relevés horaires.

4 Ensoleillement en heures relevé entre 06:00 UTC la veille et 06:00 UTC le jour donné.

5 Précipitations totales tombées entre 06:00 UTC la jour donné et 06:00 UTC le lendemain.

Graphiques horaires